Clinton, South Carolina
Current Conditions -  °F | °C
As of 1:15 PM on Tuesday 21 Oct 2014 (Local Time) from KLUX Reporting Station
Clear Clear  
Wind Chill: 73°   Ceiling: Unl
Heat Index: 73°   Visibility: 10mi
Dew Point: 37°   Wind: 7mph
Humidity: 27%   Direction: 240°WSW
Pressure: 29.93"   Gusts: 16mph
Location:  34.47°N, 81.88°W
Report Text: KLUX 211715Z AUTO 24006G14KT 10SM CLR 23/03 A2993 RMK AO2
Loading
Personal Weather Stations






























Interactive Weather Map
Tropical Storm Tracking
New forecast layout! Learn more

10-Day Weather Forecast

Advertisements
Track Severe Weather on mobile